Time;durP1;ratioP1;P1;durP2;ratioP2;P2;SDS_P1;SDS_P2;PMS_P1;PMS_P2;Temp;Humidity;BMP_temperature;BMP_pressure;BME280_temperature;BME280_humidity;BME280_pressure;Samples;Min_cycle;Max_cycle;Signal;HPM_P1;HPM_P2
2021/08/01 00:00:31;;;;;;;12.40;8.03;;;;;;;26.08;65.99;100973.48;1713475;84;21258;-71
2021/08/01 00:03:05;;;;;;;12.23;8.60;;;;;;;26.12;66.10;100975.84;1712914;83;21226;-71
2021/08/01 00:05:37;;;;;;;16.42;8.40;;;;;;;26.18;66.08;100967.28;1712611;83;21177;-70
2021/08/01 00:08:10;;;;;;;11.45;8.80;;;;;;;26.21;66.11;100963.13;1710697;84;21760;-70
2021/08/01 00:10:44;;;;;;;13.50;9.08;;;;;;;26.26;66.22;100963.46;1713052;84;21234;-70
2021/08/01 00:13:17;;;;;;;15.32;7.90;;;;;;;26.28;66.10;100965.38;1713459;84;21265;-71
2021/08/01 00:15:49;;;;;;;14.17;9.60;;;;;;;26.29;66.21;100965.61;1695529;83;21398;-70
2021/08/01 00:18:22;;;;;;;20.30;8.57;;;;;;;26.30;66.31;100965.84;1701548;83;21250;-70
2021/08/01 00:20:55;;;;;;;15.40;9.25;;;;;;;26.31;66.33;100956.10;1703714;80;22084;-71
2021/08/01 00:23:28;;;;;;;14.05;8.95;;;;;;;26.33;66.50;100960.87;1784011;80;21216;-72
2021/08/01 00:26:01;;;;;;;23.60;9.18;;;;;;;26.36;66.40;100960.97;1783937;80;21268;-71
2021/08/01 00:28:34;;;;;;;19.40;10.17;;;;;;;26.38;66.50;100964.86;1772152;80;21306;-71
2021/08/01 00:31:06;;;;;;;19.40;9.93;;;;;;;26.39;66.47;100965.13;1795272;79;21724;-71
2021/08/01 00:33:39;;;;;;;17.73;10.10;;;;;;;26.37;66.57;100967.48;1803228;79;21712;-69
2021/08/01 00:36:12;;;;;;;;;;;;;;;26.36;66.68;100978.65;1807897;79;21708;-71
2021/08/01 00:38:45;;;;;;;17.98;9.20;;;;;;;26.36;66.85;100979.49;1803321;79;20217;-69
2021/08/01 00:41:17;;;;;;;13.28;8.65;;;;;;;26.31;67.04;100976.04;1806833;79;21328;-73
2021/08/01 00:43:50;;;;;;;;;;;;;;;26.28;67.17;100979.01;1780912;80;21149;-70
2021/08/01 00:46:22;;;;;;;14.95;9.78;;;;;;;26.25;67.34;100980.32;1780406;80;20338;-72
2021/08/01 00:48:55;;;;;;;;;;;;;;;26.20;67.54;100970.62;1786400;80;21182;-72
2021/08/01 00:51:28;;;;;;;14.47;9.45;;;;;;;26.17;67.61;100961.36;1805830;79;20189;-71
2021/08/01 00:54:02;;;;;;;17.20;9.50;;;;;;;26.13;67.86;100961.25;1777857;79;21264;-71
2021/08/01 00:56:36;;;;;;;15.90;10.55;;;;;;;26.13;68.07;100961.25;1797654;79;21368;-72
2021/08/01 00:59:09;;;;;;;16.30;10.60;;;;;;;26.13;68.18;100956.13;1781866;80;21392;-72
2021/08/01 01:01:50;;;;;;;14.47;10.25;;;;;;;26.13;68.18;100959.82;1751288;80;21372;-73
2021/08/01 01:04:49;;;;;;;20.30;10.38;;;;;;;26.12;68.25;100950.20;1783858;80;21221;-71
2021/08/01 01:07:33;;;;;;;12.15;8.58;;;;;;;26.10;68.35;100946.28;1782442;80;21380;-72
2021/08/01 01:10:13;;;;;;;13.65;9.68;;;;;;;26.07;68.62;100940.48;1776447;80;21257;-72
2021/08/01 01:12:58;;;;;;;15.72;9.95;;;;;;;26.03;68.86;100941.78;1763685;80;21213;-72
2021/08/01 01:15:33;;;;;;;19.05;10.18;;;;;;;25.99;69.03;100947.98;1781760;80;21320;-71
2021/08/01 01:18:07;;;;;;;14.00;9.40;;;;;;;25.98;69.15;100963.98;1752340;80;21186;-71
2021/08/01 01:21:03;;;;;;;19.55;9.85;;;;;;;26.00;69.17;100967.30;1727349;80;21177;-71
2021/08/01 01:23:50;;;;;;;16.00;9.00;;;;;;;26.00;69.15;100961.02;1767751;79;21198;-70
2021/08/01 01:27:03;;;;;;;16.02;9.33;;;;;;;26.02;69.24;100962.91;1712286;82;21835;-71
2021/08/01 01:29:49;;;;;;;13.75;10.03;;;;;;;26.04;69.32;100968.25;1770785;81;21182;-71
2021/08/01 01:32:28;;;;;;;15.10;9.65;;;;;;;26.05;69.41;100967.06;1771861;81;21165;-69
2021/08/01 01:35:07;;;;;;;12.75;9.15;;;;;;;26.03;69.44;100956.64;1767791;81;21872;-70
2021/08/01 01:37:41;;;;;;;13.53;8.95;;;;;;;25.99;69.42;100951.41;1767934;81;21298;-68
2021/08/01 01:40:17;;;;;;;12.93;9.40;;;;;;;25.99;69.53;100949.98;1764154;80;21338;-72
2021/08/01 01:43:06;;;;;;;14.68;9.40;;;;;;;26.00;69.68;100959.60;1764723;81;21424;-72
2021/08/01 01:45:39;;;;;;;14.90;9.73;;;;;;;25.98;69.85;100963.38;1773058;81;21360;-72
2021/08/01 01:48:12;;;;;;;15.35;8.98;;;;;;;25.97;69.89;100970.27;1735269;81;21413;-72
2021/08/01 01:50:45;;;;;;;13.20;8.40;;;;;;;25.95;69.97;100973.23;1745726;82;21345;-75
2021/08/01 01:53:17;;;;;;;17.32;9.88;;;;;;;25.92;70.13;100981.07;1768568;81;21376;-73
2021/08/01 01:55:50;;;;;;;21.97;9.88;;;;;;;25.89;70.26;100974.62;1734157;78;21864;-73
2021/08/01 01:58:23;;;;;;;15.43;9.75;;;;;;;25.88;70.36;100978.08;1696667;83;21342;-71
2021/08/01 02:00:56;;;;;;;15.05;8.93;;;;;;;25.92;70.39;100983.92;1692186;83;21196;-72
2021/08/01 02:03:32;;;;;;;14.25;9.30;;;;;;;25.92;70.38;100985.34;1703095;83;21864;-72
2021/08/01 02:06:06;;;;;;;16.05;9.60;;;;;;;25.92;70.45;100991.03;1703216;83;21445;-72
2021/08/01 02:09:10;;;;;;;20.57;9.88;;;;;;;25.90;70.60;100983.45;1697138;83;21195;-71
2021/08/01 02:12:15;;;;;;;18.05;9.75;;;;;;;25.92;70.55;100982.50;1696151;83;21192;-70
2021/08/01 02:15:04;;;;;;;15.30;9.65;;;;;;;25.96;70.56;100979.19;1680842;83;21179;-72
2021/08/01 02:18:00;;;;;;;16.17;9.43;;;;;;;25.95;70.55;100981.19;1709529;83;21314;-74
2021/08/01 02:20:48;;;;;;;11.57;9.33;;;;;;;25.95;70.59;100981.77;1716902;83;21187;-71
2021/08/01 02:23:32;;;;;;;14.98;10.30;;;;;;;25.94;70.68;100989.50;1697183;84;21313;-70
2021/08/01 02:26:06;;;;;;;17.67;10.23;;;;;;;25.92;70.72;101000.39;1690808;83;21368;-69
2021/08/01 02:28:38;;;;;;;17.25;9.20;;;;;;;25.93;70.64;101002.66;1692221;83;21340;-72
2021/08/01 02:31:11;;;;;;;22.50;9.98;;;;;;;25.87;70.75;101004.89;1684535;83;21298;-70
2021/08/01 02:33:44;;;;;;;12.55;8.58;;;;;;;25.86;70.91;101000.39;1722522;83;21188;-71
2021/08/01 02:36:20;;;;;;;16.12;9.30;;;;;;;25.87;70.91;101003.47;1695569;83;21184;-72
2021/08/01 02:38:58;;;;;;;28.23;9.90;;;;;;;25.89;71.00;101001.66;1698734;83;21243;-71
2021/08/01 02:41:36;;;;;;;20.80;9.68;;;;;;;25.88;71.02;101000.84;1690909;83;21321;-72
2021/08/01 02:44:19;;;;;;;17.73;9.48;;;;;;;25.89;71.07;101003.09;1706804;83;21325;-70
2021/08/01 02:46:53;;;;;;;16.70;9.90;;;;;;;25.88;71.10;100998.58;1692941;83;21344;-68
2021/08/01 02:49:28;;;;;;;14.47;9.45;;;;;;;25.88;71.21;100997.16;1697630;83;21183;-68
2021/08/01 02:52:03;;;;;;;19.80;10.75;;;;;;;25.85;71.14;100999.31;1684883;83;21229;-67
2021/08/01 02:54:36;;;;;;;21.82;10.55;;;;;;;25.83;71.28;101002.50;1692054;85;21376;-69
2021/08/01 02:57:11;;;;;;;17.65;11.05;;;;;;;25.83;71.31;101003.08;1708841;83;21306;-69
2021/08/01 02:59:44;;;;;;;15.72;10.50;;;;;;;25.81;71.49;100995.50;1716695;81;21165;-78
2021/08/01 03:02:16;;;;;;;22.03;11.00;;;;;;;25.81;71.67;100989.81;1769911;81;21177;-78
2021/08/01 03:04:53;;;;;;;18.45;11.12;;;;;;;25.83;71.72;100990.27;1769428;81;21392;-78
2021/08/01 03:07:26;;;;;;;14.28;10.50;;;;;;;25.82;71.74;100988.62;1765101;79;21317;-75
2021/08/01 03:09:59;;;;;;;19.35;9.70;;;;;;;25.82;71.90;100989.46;1758735;81;21289;-73
2021/08/01 03:12:33;;;;;;;16.32;9.93;;;;;;;25.81;72.05;100992.08;1765802;81;21296;-67
2021/08/01 03:15:06;;;;;;;;;;;;;;;25.82;72.10;100990.04;1771484;81;21296;-76
2021/08/01 03:17:40;;;;;;;18.60;11.35;;;;;;;25.86;72.14;100996.70;1768780;81;20194;-76
2021/08/01 03:20:14;;;;;;;21.87;10.98;;;;;;;25.87;72.19;100993.50;1769715;81;21328;-75
2021/08/01 03:22:48;;;;;;;24.85;11.38;;;;;;;25.88;72.24;100985.20;1749403;81;21197;-74
2021/08/01 03:25:21;;;;;;;18.42;11.53;;;;;;;25.90;72.35;100984.88;1756397;81;21432;-76
2021/08/01 03:27:53;;;;;;;24.57;11.17;;;;;;;25.90;72.43;100987.73;1715149;83;21371;-74
2021/08/01 03:30:27;;;;;;;15.00;10.53;;;;;;;25.93;72.53;101000.66;1709763;82;21348;-70
2021/08/01 03:33:01;;;;;;;20.92;10.65;;;;;;;25.95;72.62;100991.73;1712270;83;21324;-70
2021/08/01 03:35:34;;;;;;;22.37;10.30;;;;;;;25.95;72.71;100985.45;1770083;81;21818;-70
2021/08/01 03:38:16;;;;;;;23.30;11.20;;;;;;;26.01;72.80;100987.46;1758042;81;21767;-70
2021/08/01 03:40:56;;;;;;;17.77;11.25;;;;;;;26.08;72.84;100982.03;1762794;81;21348;-71
2021/08/01 03:43:31;;;;;;;18.50;11.10;;;;;;;26.14;72.81;100979.98;1739923;81;21324;-70
2021/08/01 03:46:03;;;;;;;17.92;10.32;;;;;;;26.20;72.85;100977.75;1739888;82;21312;-69
2021/08/01 03:48:36;;;;;;;19.48;10.50;;;;;;;26.23;72.99;100975.59;1749479;81;21692;-74
2021/08/01 03:51:09;;;;;;;22.58;10.08;;;;;;;26.29;73.23;100974.16;1770244;81;21313;-70
2021/08/01 03:53:41;;;;;;;;;;;;;;;26.39;74.00;100980.80;1772830;79;21875;-71
2021/08/01 03:56:13;;;;;;;18.82;9.28;;;;;;;26.49;74.43;100975.42;1769331;81;20278;-71
2021/08/01 03:58:47;;;;;;;11.85;9.90;;;;;;;26.62;75.00;100979.92;1738659;81;21305;-69
2021/08/01 04:01:19;;;;;;;16.55;8.90;;;;;;;26.74;75.12;100980.47;1738395;81;21324;-68
2021/08/01 04:03:52;;;;;;;11.78;9.20;;;;;;;26.88;75.34;100986.62;1762040;81;21190;-68
2021/08/01 04:06:24;;;;;;;12.13;8.55;;;;;;;26.97;75.47;100988.12;1762206;81;21409;-68
2021/08/01 04:08:57;;;;;;;10.83;7.63;;;;;;;27.07;76.01;100991.05;1758681;81;21875;-83
2021/08/01 04:11:30;;;;;;;11.60;7.97;;;;;;;27.12;76.54;100987.94;1739405;81;21195;-72
2021/08/01 04:14:03;;;;;;;17.25;8.70;;;;;;;27.17;76.69;100988.52;1759393;78;21333;-71
2021/08/01 04:16:37;;;;;;;14.05;8.28;;;;;;;27.28;76.50;100989.05;1782345;80;21724;-71
2021/08/01 04:19:11;;;;;;;14.53;8.10;;;;;;;27.42;76.53;100984.33;1754747;80;21791;-71
2021/08/01 04:21:45;;;;;;;15.30;8.23;;;;;;;27.55;76.45;100988.77;1752747;80;21312;-71
2021/08/01 04:24:17;;;;;;;11.28;8.13;;;;;;;27.67;76.39;100985.23;1734694;81;21229;-71
2021/08/01 04:26:50;;;;;;;12.20;8.18;;;;;;;27.84;76.38;100991.20;1750090;80;21227;-72
2021/08/01 04:29:23;;;;;;;10.72;7.47;;;;;;;27.99;75.97;100998.92;1792450;79;21181;-70
2021/08/01 04:31:55;;;;;;;9.83;7.33;;;;;;;28.16;75.25;100996.52;1798638;79;21743;-70
2021/08/01 04:34:28;;;;;;;10.58;7.60;;;;;;;28.41;75.31;100997.14;1790859;79;21181;-73
2021/08/01 04:37:02;;;;;;;13.60;8.13;;;;;;;28.76;74.48;100993.08;1792193;79;21683;-71
2021/08/01 04:39:35;;;;;;;13.65;7.67;;;;;;;29.22;73.37;100994.88;1735556;82;21763;-71
2021/08/01 04:42:11;;;;;;;12.90;7.37;;;;;;;29.69;71.72;100988.86;1714620;82;21222;-69
2021/08/01 04:44:44;;;;;;;12.58;7.22;;;;;;;30.11;70.06;100991.89;1764798;80;21202;-69
2021/08/01 04:47:17;;;;;;;9.40;6.65;;;;;;;30.53;68.42;100996.86;1788506;79;21201;-68
2021/08/01 04:49:51;;;;;;;8.60;6.30;;;;;;;30.96;66.55;100991.96;1790200;79;21327;-68
2021/08/01 04:52:24;;;;;;;10.63;6.90;;;;;;;31.38;64.06;100998.25;1783108;80;21806;-70
2021/08/01 04:54:57;;;;;;;9.90;6.50;;;;;;;31.73;62.99;101001.50;1783070;80;21191;-68
2021/08/01 04:57:30;;;;;;;15.03;7.10;;;;;;;32.16;61.95;100994.91;1784131;79;21310;-69
2021/08/01 05:00:04;;;;;;;9.88;6.40;;;;;;;32.52;58.90;101004.05;1751061;80;21371;-72
2021/08/01 05:02:37;;;;;;;11.73;6.15;;;;;;;32.82;58.90;101003.23;1744868;81;21195;-70
2021/08/01 05:05:13;;;;;;;12.75;6.20;;;;;;;33.06;56.70;101005.41;1744830;82;21230;-69
2021/08/01 05:07:46;;;;;;;13.15;5.42;;;;;;;33.24;56.20;101000.55;1749740;80;21799;-70
2021/08/01 05:10:18;;;;;;;12.18;5.97;;;;;;;33.44;55.94;101006.82;1746291;82;21336;-80
2021/08/01 05:12:51;;;;;;;11.75;6.30;;;;;;;33.82;54.98;101017.64;1748610;82;21702;-79
2021/08/01 05:15:24;;;;;;;12.05;5.80;;;;;;;34.27;54.21;101014.80;1750165;81;21235;-69
2021/08/01 05:17:58;;;;;;;10.80;6.33;;;;;;;34.59;53.62;101017.02;1742133;82;21352;-71
2021/08/01 05:20:32;;;;;;;10.43;6.10;;;;;;;34.80;53.33;101017.63;1738413;82;21336;-71
2021/08/01 05:23:04;;;;;;;9.20;6.30;;;;;;;35.01;51.78;101012.61;1743473;82;21392;-69
2021/08/01 05:25:36;;;;;;;12.80;5.60;;;;;;;35.24;50.58;101005.73;1743240;82;21345;-76
2021/08/01 05:28:10;;;;;;;11.75;5.62;;;;;;;35.35;50.55;101010.86;1716582;79;21348;-75
2021/08/01 05:30:42;;;;;;;11.30;6.30;;;;;;;35.36;50.47;101016.83;1721025;82;21423;-71
2021/08/01 05:33:15;;;;;;;11.20;5.60;;;;;;;35.38;49.46;101019.31;1719896;82;21439;-78
2021/08/01 05:35:47;;;;;;;7.35;5.50;;;;;;;35.28;49.05;101013.78;1720994;82;21344;-69
2021/08/01 05:38:20;;;;;;;5.67;5.05;;;;;;;35.20;48.77;101017.89;1720012;83;21347;-76
2021/08/01 05:40:55;;;;;;;13.15;6.00;;;;;;;35.25;48.80;101021.03;1719834;83;21245;-77
2021/08/01 05:43:28;;;;;;;8.75;5.97;;;;;;;35.49;48.29;101021.53;1730916;82;21324;-77
2021/08/01 05:46:00;;;;;;;12.25;5.30;;;;;;;35.67;48.26;101025.11;1709083;82;21692;-68
2021/08/01 05:48:32;;;;;;;5.47;4.97;;;;;;;35.84;47.00;101033.72;1720747;82;21229;-69
2021/08/01 05:51:09;;;;;;;8.25;5.25;;;;;;;35.67;46.74;101030.28;1692206;82;21206;-70
2021/08/01 05:53:43;;;;;;;10.32;5.72;;;;;;;35.36;47.67;101030.45;1701270;83;21360;-69
2021/08/01 05:56:16;;;;;;;12.28;5.33;;;;;;;35.04;47.84;101029.13;1725341;82;21317;-73
2021/08/01 05:58:49;;;;;;;9.55;5.53;;;;;;;34.78;48.81;101039.70;1697150;82;21293;-70
2021/08/01 06:01:21;;;;;;;16.25;5.72;;;;;;;34.61;48.52;101035.38;1707664;82;21273;-71
2021/08/01 06:03:54;;;;;;;7.20;5.67;;;;;;;34.22;48.69;101028.80;1758517;77;21210;-77
2021/08/01 06:06:26;;;;;;;7.60;5.58;;;;;;;33.58;50.09;101028.47;1788956;80;21211;-78
2021/08/01 06:09:00;;;;;;;11.33;6.03;;;;;;;33.00;50.98;101030.70;1769721;81;21206;-76
2021/08/01 06:11:32;;;;;;;10.58;6.37;;;;;;;32.75;51.85;101032.58;1770340;81;21226;-78
2021/08/01 06:14:06;;;;;;;6.40;5.80;;;;;;;32.62;52.23;101036.39;1769370;81;21820;-74
2021/08/01 06:16:38;;;;;;;9.60;6.17;;;;;;;32.56;52.93;101032.84;1760754;81;21178;-72
2021/08/01 06:19:12;;;;;;;8.63;6.20;;;;;;;32.55;52.83;101033.47;1768139;81;21329;-72
2021/08/01 06:21:44;;;;;;;13.40;6.35;;;;;;;32.57;53.10;101029.57;1770555;81;21404;-71
2021/08/01 06:24:19;;;;;;;8.83;6.20;;;;;;;32.73;53.32;101029.26;1782430;80;21756;-72
2021/08/01 06:26:52;;;;;;;13.28;6.12;;;;;;;32.98;52.12;101028.81;1739247;81;21787;-72
2021/08/01 06:29:25;;;;;;;14.40;6.00;;;;;;;33.06;51.00;101023.32;1708904;84;21730;-70
2021/08/01 06:31:57;;;;;;;;;;;;;;;33.22;50.75;101025.22;1754990;77;23181;-69
2021/08/01 06:34:30;;;;;;;8.50;5.33;;;;;;;33.51;50.39;101026.41;1751722;81;20300;-69
2021/08/01 06:37:03;;;;;;;9.53;6.15;;;;;;;33.82;49.30;101030.61;1749823;80;21889;-76
2021/08/01 06:39:36;;;;;;;11.78;5.75;;;;;;;34.03;49.88;101024.88;1751969;82;21289;-73
2021/08/01 06:42:08;;;;;;;6.10;4.87;;;;;;;34.37;48.99;101029.86;1739234;81;21688;-73
2021/08/01 06:44:42;;;;;;;14.73;5.83;;;;;;;34.67;47.92;101036.00;1744043;81;21210;-70
2021/08/01 06:47:14;;;;;;;8.00;4.78;;;;;;;34.83;47.30;101023.40;1745366;81;21143;-70
2021/08/01 06:49:47;;;;;;;9.73;5.45;;;;;;;34.95;47.22;101025.03;1745368;81;21841;-70
2021/08/01 06:52:21;;;;;;;12.25;5.17;;;;;;;34.95;47.00;101026.48;1714762;81;21326;-69
2021/08/01 06:54:54;;;;;;;9.00;4.87;;;;;;;34.99;47.34;101015.72;1735241;82;21661;-75
2021/08/01 06:57:27;;;;;;;;;;;;;;;35.14;46.73;101015.23;1746627;81;21233;-76
2021/08/01 07:00:04;;;;;;;10.38;4.70;;;;;;;35.26;46.71;101022.03;1745351;80;20254;-70
2021/08/01 07:02:36;;;;;;;7.17;5.28;;;;;;;35.37;46.03;101014.14;1762071;81;21790;-72
2021/08/01 07:05:10;;;;;;;8.48;4.95;;;;;;;35.52;45.78;101017.17;1742445;81;21426;-70
2021/08/01 07:07:42;;;;;;;;;;;;;;;35.77;45.66;101027.16;1750978;81;21897;-70
2021/08/01 07:10:15;;;;;;;8.13;4.87;;;;;;;35.92;44.76;101030.97;1722312;82;20258;-69
2021/08/01 07:12:48;;;;;;;7.42;4.95;;;;;;;35.99;44.84;101026.57;1751116;80;21878;-72
2021/08/01 07:15:24;;;;;;;;;;;;;;;36.23;44.81;101034.27;1751619;80;21887;-76
2021/08/01 07:18:00;;;;;;;7.42;5.47;;;;;;;36.42;43.90;101039.47;1740119;82;20229;-73
2021/08/01 07:20:32;;;;;;;5.70;4.65;;;;;;;36.30;43.72;101034.84;1735327;82;21590;-74
2021/08/01 07:23:06;;;;;;;6.28;4.72;;;;;;;36.11;43.76;101038.28;1731320;82;21155;-70
2021/08/01 07:25:40;;;;;;;7.55;5.05;;;;;;;35.96;44.36;101040.45;1734550;82;21190;-71
2021/08/01 07:28:13;;;;;;;5.60;4.35;;;;;;;35.78;44.56;101036.86;1737452;82;21907;-70
2021/08/01 07:30:45;;;;;;;8.00;5.10;;;;;;;35.69;45.16;101039.98;1734663;82;21309;-72
2021/08/01 07:33:17;;;;;;;;;;;;;;;35.47;44.92;101045.07;1737821;82;21218;-70
2021/08/01 07:35:50;;;;;;;9.10;4.65;;;;;;;35.25;45.59;101041.27;1747795;80;20225;-71
2021/08/01 07:38:24;;;;;;;9.03;5.20;;;;;;;34.95;46.33;101038.84;1747105;82;21404;-70
2021/08/01 07:40:57;;;;;;;10.30;4.90;;;;;;;34.72;46.51;101041.33;1767490;80;21181;-70
2021/08/01 07:43:30;;;;;;;11.65;5.28;;;;;;;34.46;46.94;101028.00;1738078;82;21771;-74
2021/08/01 07:46:02;;;;;;;14.15;4.90;;;;;;;34.36;48.23;101036.03;1785632;79;21160;-70
2021/08/01 07:48:36;;;;;;;9.88;4.97;;;;;;;34.37;48.29;101041.41;1735264;82;21320;-74
2021/08/01 07:51:08;;;;;;;9.78;4.80;;;;;;;34.49;48.71;101038.70;1740829;81;21181;-75
2021/08/01 07:53:41;;;;;;;8.85;4.72;;;;;;;34.51;47.84;101033.32;1723125;80;21862;-72
2021/08/01 07:56:15;;;;;;;6.28;4.55;;;;;;;34.44;48.02;101031.28;1734379;82;21332;-71
2021/08/01 07:58:48;;;;;;;11.15;5.05;;;;;;;34.48;48.40;101033.56;1749376;81;21339;-77
2021/08/01 08:01:21;;;;;;;8.30;5.42;;;;;;;34.47;48.61;101039.73;1748167;81;21226;-70
2021/08/01 08:03:53;;;;;;;8.93;5.05;;;;;;;34.31;48.29;101032.11;1779268;79;21804;-71
2021/08/01 08:06:26;;;;;;;7.28;5.03;;;;;;;34.07;48.63;101030.02;1722083;82;21733;-77
2021/08/01 08:09:02;;;;;;;5.72;5.03;;;;;;;34.01;49.54;101027.33;1760998;79;21300;-73
2021/08/01 08:11:33;;;;;;;8.53;4.85;;;;;;;34.04;49.92;101024.45;1781572;79;21309;-70
2021/08/01 08:14:07;;;;;;;7.95;4.97;;;;;;;34.15;49.75;101028.80;1750480;80;21186;-70
2021/08/01 08:16:41;;;;;;;12.65;4.83;;;;;;;34.04;48.43;101025.89;1770315;80;21209;-68
2021/08/01 08:19:13;;;;;;;28.30;9.03;;;;;;;33.79;48.32;101023.59;1755497;80;21284;-66
2021/08/01 08:21:47;;;;;;;20.25;8.18;;;;;;;33.66;49.12;101021.47;1756258;80;21186;-69
2021/08/01 08:24:19;;;;;;;8.08;5.83;;;;;;;33.64;49.06;101027.67;1754294;80;21826;-71
2021/08/01 08:26:53;;;;;;;8.88;4.37;;;;;;;33.68;49.14;101022.72;1739941;82;21838;-69
2021/08/01 08:29:25;;;;;;;;;;;;;;;33.56;47.69;101020.22;1796364;79;21218;-67
2021/08/01 08:31:58;;;;;;;10.18;5.30;;;;;;;33.42;46.38;101027.39;1727675;81;20192;-82
2021/08/01 08:34:31;;;;;;;8.00;4.20;;;;;;;33.18;47.10;101026.65;1780975;79;21839;-69
2021/08/01 08:37:04;;;;;;;27.85;5.67;;;;;;;32.97;45.39;101029.45;1773559;79;21239;-72
2021/08/01 08:39:36;;;;;;;9.20;4.53;;;;;;;32.82;44.72;101024.02;1743157;82;21444;-69
2021/08/01 08:42:09;;;;;;;12.65;5.12;;;;;;;32.73;45.21;101026.38;1714845;83;21205;-82
2021/08/01 08:44:41;;;;;;;;;;;;;;;32.67;45.80;101027.39;1717577;83;21198;-70
2021/08/01 08:47:19;;;;;;;12.28;5.25;;;;;;;32.63;45.75;101034.36;1715048;83;20252;-71
2021/08/01 08:49:52;;;;;;;9.40;4.50;;;;;;;32.53;45.15;101027.30;1714918;83;21344;-69
2021/08/01 08:52:24;;;;;;;;;;;;;;;32.53;45.78;101035.94;1762575;79;21328;-66
2021/08/01 08:55:04;;;;;;;14.63;5.50;;;;;;;32.54;46.71;101023.19;1771637;81;20263;-68
2021/08/01 08:57:34;;;;;;;9.18;4.80;;;;;;;32.51;46.87;101016.78;1780390;79;21249;-70
2021/08/01 09:00:12;;;;;;;8.08;4.10;;;;;;;32.51;47.46;101018.22;1797485;80;21191;-73
2021/08/01 09:02:44;;;;;;;7.15;4.70;;;;;;;32.57;47.11;101023.81;1782178;79;21230;-76
2021/08/01 09:05:17;;;;;;;7.67;3.95;;;;;;;32.60;46.11;101022.19;1780907;79;21214;-70
2021/08/01 09:07:49;;;;;;;7.83;4.03;;;;;;;32.60;46.22;101025.91;1750893;81;21296;-70
2021/08/01 09:10:22;;;;;;;10.18;5.10;;;;;;;32.54;46.24;101026.67;1762511;81;21372;-70
2021/08/01 09:12:56;;;;;;;28.15;8.45;;;;;;;32.51;46.10;101028.30;1746866;81;21230;-68
2021/08/01 09:15:29;;;;;;;12.13;5.62;;;;;;;32.48;46.84;101031.15;1754434;79;21368;-68
2021/08/01 09:18:03;;;;;;;5.92;4.35;;;;;;;32.42;46.77;101024.12;1754461;81;21692;-76
2021/08/01 09:20:35;;;;;;;10.58;4.85;;;;;;;32.31;45.84;101031.84;1721363;81;21195;-83
2021/08/01 09:23:11;;;;;;;12.65;4.67;;;;;;;32.17;45.58;101024.50;1767383;80;21191;-74
2021/08/01 09:25:46;;;;;;;7.83;4.92;;;;;;;32.06;45.41;101025.86;1791060;80;21171;-78
2021/08/01 09:28:25;;;;;;;10.65;4.33;;;;;;;32.01;45.98;101029.09;1790659;80;21183;-71
2021/08/01 09:31:06;;;;;;;11.53;4.53;;;;;;;31.99;45.86;101030.71;1791621;80;21175;-72
2021/08/01 09:33:43;;;;;;;14.47;4.30;;;;;;;31.98;45.79;101031.34;1791466;80;21324;-70
2021/08/01 09:36:21;;;;;;;8.03;4.20;;;;;;;31.95;45.14;101022.05;1791421;80;21190;-69
2021/08/01 09:39:00;;;;;;;8.05;4.28;;;;;;;31.96;45.25;101021.45;1791194;80;21776;-78
2021/08/01 09:41:38;;;;;;;7.97;4.25;;;;;;;31.96;45.13;101017.95;1789699;80;21253;-71
2021/08/01 09:44:12;;;;;;;9.05;4.40;;;;;;;31.96;45.12;101027.20;1789060;80;21234;-76
2021/08/01 09:46:49;;;;;;;6.72;3.72;;;;;;;31.98;44.69;101029.91;1764838;80;21344;-75
2021/08/01 09:49:30;;;;;;;4.35;3.55;;;;;;;31.99;43.90;101024.96;1791378;80;21313;-83
2021/08/01 09:52:04;;;;;;;8.80;4.28;;;;;;;31.99;43.48;101031.55;1791398;80;21641;-75
2021/08/01 09:54:47;;;;;;;7.95;3.92;;;;;;;31.94;43.92;101029.03;1791223;80;21186;-70
2021/08/01 09:57:21;;;;;;;9.60;4.35;;;;;;;31.89;44.41;101027.95;1797412;79;21309;-71
2021/08/01 10:00:07;;;;;;;;;;;;;;;31.91;44.68;101027.56;1793572;80;21183;-80
2021/08/01 10:02:41;;;;;;;7.92;4.28;;;;;;;31.95;44.96;101026.37;1791101;80;20254;-71
2021/08/01 10:05:22;;;;;;;9.60;4.78;;;;;;;31.96;45.01;101029.45;1791019;80;21299;-71
2021/08/01 10:07:57;;;;;;;6.40;4.20;;;;;;;31.95;45.33;101033.55;1790928;80;21367;-75
2021/08/01 10:10:29;;;;;;;12.23;4.30;;;;;;;31.93;45.21;101020.20;1791145;80;21182;-70
2021/08/01 10:13:03;;;;;;;11.45;3.90;;;;;;;31.89;45.15;101015.02;1780936;80;21254;-73
2021/08/01 10:15:35;;;;;;;8.68;3.83;;;;;;;31.88;44.99;101016.25;1786221;80;21684;-72
2021/08/01 10:18:09;;;;;;;10.15;4.87;;;;;;;31.86;45.45;101012.95;1767102;80;21285;-76
2021/08/01 10:20:42;;;;;;;9.28;4.03;;;;;;;31.82;45.88;101009.20;1786098;80;21858;-70
2021/08/01 10:23:14;;;;;;;9.23;4.70;;;;;;;31.79;46.23;101009.17;1808594;79;21317;-76
2021/08/01 10:25:47;;;;;;;10.20;4.70;;;;;;;31.70;46.51;101011.50;1790523;79;21325;-74
2021/08/01 10:28:22;;;;;;;10.90;4.90;;;;;;;31.60;46.62;101007.92;1812411;79;21756;-77
2021/08/01 10:30:55;;;;;;;8.05;4.62;;;;;;;31.52;46.99;101007.02;1812465;79;21376;-71
2021/08/01 10:33:28;;;;;;;6.85;4.28;;;;;;;31.48;47.60;101019.06;1812322;79;21811;-71
2021/08/01 10:36:01;;;;;;;10.85;5.10;;;;;;;31.44;47.73;101011.04;1812201;79;21175;-71
2021/08/01 10:38:38;;;;;;;6.60;4.10;;;;;;;31.38;47.68;101014.64;1812279;79;21219;-75
2021/08/01 10:41:11;;;;;;;11.30;5.17;;;;;;;31.29;47.29;101002.03;1812165;79;21372;-74
2021/08/01 10:43:45;;;;;;;6.65;4.42;;;;;;;31.25;47.33;100998.91;1812414;79;21796;-80
2021/08/01 10:46:21;;;;;;;8.23;4.12;;;;;;;31.20;46.72;101004.40;1812275;79;21334;-71
2021/08/01 10:48:53;;;;;;;8.83;4.45;;;;;;;31.14;46.95;100990.73;1812467;79;21329;-72
2021/08/01 10:51:29;;;;;;;13.08;4.60;;;;;;;31.08;46.82;100996.02;1812270;79;21310;-71
2021/08/01 10:54:30;;;;;;;12.20;4.50;;;;;;;31.04;46.48;101006.61;1812157;79;21839;-70
2021/08/01 10:57:20;;;;;;;10.95;5.03;;;;;;;31.01;46.82;100997.95;1812157;79;21382;-72
2021/08/01 11:00:00;;;;;;;29.42;5.20;;;;;;;31.00;46.78;100999.98;1812170;79;21371;-71
2021/08/01 11:02:33;;;;;;;9.08;4.30;;;;;;;30.98;46.42;101005.30;1812238;79;21195;-78
2021/08/01 11:05:38;;;;;;;13.58;5.10;;;;;;;30.98;47.01;101008.80;1812241;79;21827;-74
2021/08/01 11:08:11;;;;;;;9.33;4.65;;;;;;;30.94;46.67;100990.70;1812087;79;21380;-70
2021/08/01 11:10:45;;;;;;;10.65;4.85;;;;;;;30.92;46.93;100997.44;1812224;79;21325;-71
2021/08/01 11:13:35;;;;;;;14.35;5.30;;;;;;;30.92;46.91;100988.83;1812362;79;21317;-78
2021/08/01 11:16:09;;;;;;;7.78;4.28;;;;;;;30.95;46.84;100985.17;1812142;79;21190;-70
2021/08/01 11:18:45;;;;;;;7.50;4.35;;;;;;;31.00;46.77;100994.88;1812054;79;21254;-74
2021/08/01 11:21:19;;;;;;;9.45;4.95;;;;;;;31.02;46.52;100992.42;1811938;79;21218;-72
2021/08/01 11:24:00;;;;;;;6.58;4.15;;;;;;;31.00;46.83;100984.20;1785768;78;21324;-72
2021/08/01 11:26:33;;;;;;;8.95;3.95;;;;;;;30.99;46.79;100990.36;1785307;80;21363;-73
2021/08/01 11:29:09;;;;;;;11.50;4.58;;;;;;;31.01;44.34;100986.47;1785476;80;21378;-71
2021/08/01 11:31:43;;;;;;;11.35;4.67;;;;;;;31.02;46.32;100980.34;1785234;79;21324;-69
2021/08/01 11:34:22;;;;;;;8.25;4.58;;;;;;;31.00;47.48;100981.95;1740642;80;21391;-75
2021/08/01 11:37:20;;;;;;;12.40;5.55;;;;;;;30.98;47.53;100978.66;1785449;79;22015;-74
2021/08/01 11:39:55;;;;;;;9.00;4.37;;;;;;;30.93;47.91;100975.50;1785205;80;21170;-76
2021/08/01 11:42:28;;;;;;;11.12;5.20;;;;;;;30.93;48.52;100968.95;1785226;80;21451;-70
2021/08/01 11:45:03;;;;;;;16.37;4.72;;;;;;;30.93;48.33;100966.89;1785374;79;21245;-71
2021/08/01 11:47:43;;;;;;;8.95;4.12;;;;;;;30.93;45.17;100951.11;1785283;80;21331;-70
2021/08/01 11:50:19;;;;;;;8.38;4.17;;;;;;;30.96;45.93;100966.72;1785396;80;21193;-77
2021/08/01 11:52:51;;;;;;;7.35;5.22;;;;;;;30.93;46.61;100948.23;1781512;80;21320;-71
2021/08/01 11:55:24;;;;;;;9.05;5.00;;;;;;;30.93;48.06;100949.67;1785390;80;21865;-78
2021/08/01 11:57:56;;;;;;;7.72;5.03;;;;;;;30.90;48.76;100951.06;1785529;80;21201;-75